createdAt,value
2023-02-24T00:00:26.550Z,10.43
2023-02-24T00:02:58.485Z,10.25
2023-02-24T00:06:10.868Z,10.22
2023-02-24T00:08:54.098Z,10.15
2023-02-24T00:11:31.094Z,10.25
2023-02-24T00:14:12.942Z,10.26
2023-02-24T00:17:19.185Z,10.15
2023-02-24T00:19:57.813Z,10.15
2023-02-24T00:22:24.836Z,10.16
2023-02-24T00:25:07.882Z,10.06
2023-02-24T00:27:43.501Z,10.12
2023-02-24T00:30:14.909Z,10.31
2023-02-24T00:32:41.914Z,10.45
2023-02-24T00:35:12.530Z,10.48
2023-02-24T00:37:51.575Z,10.72
2023-02-24T00:40:23.842Z,10.87
2023-02-24T00:42:57.532Z,10.91
2023-02-24T00:48:35.855Z,10.96
2023-02-24T00:53:56.250Z,10.75
2023-02-24T00:56:35.451Z,10.62
2023-02-24T00:59:09.957Z,10.80
2023-02-24T01:01:56.027Z,10.85
2023-02-24T01:04:51.092Z,10.52
2023-02-24T01:07:19.884Z,10.33
2023-02-24T01:09:56.281Z,10.30
2023-02-24T01:12:55.813Z,10.24
2023-02-24T01:15:36.901Z,10.16
2023-02-24T01:18:27.721Z,10.17
2023-02-24T01:21:19.740Z,10.02
2023-02-24T01:24:00.232Z,9.99
2023-02-24T01:26:38.114Z,9.89
2023-02-24T01:29:09.934Z,9.83
2023-02-24T01:31:38.848Z,9.78
2023-02-24T01:34:06.195Z,9.75
2023-02-24T01:36:48.199Z,9.77
2023-02-24T01:39:15.011Z,9.72
2023-02-24T01:41:47.216Z,9.70
2023-02-24T01:44:20.000Z,9.66
2023-02-24T01:47:33.239Z,9.72
2023-02-24T01:50:22.953Z,9.63
2023-02-24T01:52:59.352Z,9.58
2023-02-24T01:55:41.138Z,9.58
2023-02-24T01:58:29.903Z,9.63
2023-02-24T02:00:58.073Z,9.60
2023-02-24T02:03:36.452Z,9.68
2023-02-24T02:06:17.562Z,9.72
2023-02-24T02:08:51.158Z,9.78
2023-02-24T02:11:27.629Z,9.74
2023-02-24T02:14:09.117Z,9.69
2023-02-24T02:16:43.093Z,9.77
2023-02-24T02:19:41.067Z,9.78
2023-02-24T02:22:42.171Z,10.54
2023-02-24T02:25:26.879Z,11.46
2023-02-24T02:28:17.670Z,12.27
2023-02-24T02:31:18.034Z,12.22
2023-02-24T02:34:19.518Z,11.82
2023-02-24T02:37:22.977Z,11.90
2023-02-24T02:40:20.041Z,12.69
2023-02-24T02:43:09.019Z,11.89
2023-02-24T02:45:58.173Z,12.03
2023-02-24T02:48:58.566Z,10.63
2023-02-24T02:51:52.274Z,10.03
2023-02-24T02:54:52.230Z,9.86
2023-02-24T02:57:31.669Z,10.02
2023-02-24T03:00:38.714Z,10.59
2023-02-24T03:03:44.181Z,10.02
2023-02-24T03:06:42.531Z,9.83
2023-02-24T03:09:27.677Z,9.61
2023-02-24T03:12:11.643Z,9.58
2023-02-24T03:14:57.685Z,9.44
2023-02-24T03:17:33.198Z,9.54
2023-02-24T03:20:33.744Z,9.39
2023-02-24T03:26:21.860Z,9.73
2023-02-24T03:29:10.295Z,9.95
2023-02-24T03:32:15.322Z,9.86
2023-02-24T03:35:12.600Z,9.77
2023-02-24T03:37:50.999Z,9.89
2023-02-24T03:40:28.901Z,10.67
2023-02-24T03:43:23.618Z,11.20
2023-02-24T03:45:50.832Z,11.40
2023-02-24T03:48:36.093Z,10.92
2023-02-24T03:51:06.166Z,10.57
2023-02-24T03:53:34.066Z,11.06
2023-02-24T03:56:47.767Z,10.16
2023-02-24T03:59:55.039Z,9.48
2023-02-24T04:02:40.492Z,9.17
2023-02-24T04:05:33.882Z,8.93
2023-02-24T04:08:27.576Z,8.94
2023-02-24T04:11:39.772Z,8.96
2023-02-24T04:14:28.358Z,8.80
2023-02-24T04:17:34.791Z,8.83
2023-02-24T04:20:18.432Z,8.78
2023-02-24T04:22:57.216Z,8.76
2023-02-24T04:25:37.370Z,8.89
2023-02-24T04:28:19.860Z,9.25
2023-02-24T04:31:10.643Z,9.89
2023-02-24T04:33:42.295Z,10.46
2023-02-24T04:36:42.991Z,11.38
2023-02-24T04:39:15.531Z,10.94
2023-02-24T04:41:51.652Z,11.71
2023-02-24T04:44:29.421Z,11.49
2023-02-24T04:47:14.067Z,10.99
2023-02-24T04:49:51.492Z,10.65
2023-02-24T04:52:25.915Z,10.36
2023-02-24T04:54:53.326Z,9.98
2023-02-24T04:57:32.994Z,9.60
2023-02-24T05:00:02.989Z,9.41
2023-02-24T05:02:33.366Z,9.40
2023-02-24T05:05:10.264Z,9.32
2023-02-24T05:07:39.844Z,9.38
2023-02-24T05:10:20.605Z,9.38
2023-02-24T05:13:01.418Z,9.31
2023-02-24T05:15:48.907Z,9.28
2023-02-24T05:21:27.005Z,9.37
2023-02-24T05:24:11.948Z,9.82
2023-02-24T05:26:42.947Z,10.74
2023-02-24T05:29:22.292Z,10.42
2023-02-24T05:32:00.162Z,10.17
2023-02-24T05:34:35.019Z,10.99
2023-02-24T05:37:11.786Z,11.57
2023-02-24T05:39:38.897Z,12.22
2023-02-24T05:42:07.266Z,12.46
2023-02-24T05:44:43.372Z,12.41
2023-02-24T05:47:54.533Z,12.47
2023-02-24T05:50:35.581Z,12.43
2023-02-24T05:53:11.840Z,12.30
2023-02-24T05:55:52.217Z,12.53
2023-02-24T05:58:26.625Z,12.79
2023-02-24T06:00:53.410Z,12.59
2023-02-24T06:03:31.131Z,12.37
2023-02-24T06:06:09.204Z,11.40
2023-02-24T06:08:57.911Z,10.75
2023-02-24T06:11:32.183Z,11.03
2023-02-24T06:14:01.302Z,11.57
2023-02-24T06:16:39.179Z,10.61
2023-02-24T06:19:24.080Z,10.23
2023-02-24T06:21:54.199Z,10.00
2023-02-24T06:24:22.271Z,9.83
2023-02-24T06:26:50.828Z,9.77
2023-02-24T06:29:41.344Z,9.68
2023-02-24T06:32:13.302Z,9.61
2023-02-24T06:34:41.111Z,9.73
2023-02-24T06:37:17.663Z,10.76
2023-02-24T06:40:04.589Z,11.29
2023-02-24T06:42:31.797Z,11.21
2023-02-24T06:47:43.253Z,10.93
2023-02-24T06:50:27.128Z,10.46
2023-02-24T06:53:03.702Z,10.31
2023-02-24T06:55:48.388Z,11.02
2023-02-24T06:58:28.660Z,11.53
2023-02-24T07:01:12.367Z,11.73
2023-02-24T07:04:11.368Z,11.75
2023-02-24T07:06:50.662Z,12.27
2023-02-24T07:09:20.649Z,12.52
2023-02-24T07:12:01.602Z,12.28
2023-02-24T07:14:37.552Z,12.21
2023-02-24T07:17:09.051Z,12.18
2023-02-24T07:19:45.742Z,12.38
2023-02-24T07:22:31.264Z,12.40
2023-02-24T07:25:39.651Z,12.15
2023-02-24T07:28:26.232Z,11.71
2023-02-24T07:31:04.355Z,11.83
2023-02-24T07:33:34.638Z,12.37
2023-02-24T07:36:15.084Z,12.10
2023-02-24T07:38:47.849Z,11.47
2023-02-24T07:41:22.647Z,11.24
2023-02-24T07:44:02.230Z,11.46
2023-02-24T07:46:45.056Z,11.62
2023-02-24T07:49:28.096Z,11.92
2023-02-24T07:52:00.609Z,12.61
2023-02-24T07:54:30.496Z,12.64
2023-02-24T07:57:06.947Z,12.48
2023-02-24T08:00:48.321Z,11.92
2023-02-24T08:03:14.432Z,12.44
2023-02-24T08:05:43.865Z,12.64
2023-02-24T08:08:31.624Z,12.30
2023-02-24T08:11:43.645Z,11.75
2023-02-24T08:14:14.486Z,11.47
2023-02-24T08:16:49.405Z,11.26
2023-02-24T08:19:25.490Z,11.75
2023-02-24T08:21:53.636Z,12.48
2023-02-24T08:24:33.310Z,12.86
2023-02-24T08:27:22.215Z,13.02
2023-02-24T08:30:00.281Z,13.01
2023-02-24T08:32:59.755Z,13.01
2023-02-24T08:35:45.306Z,12.89
2023-02-24T08:38:42.441Z,13.47
2023-02-24T08:41:56.591Z,13.42
2023-02-24T08:44:39.213Z,12.90
2023-02-24T08:47:15.658Z,12.84
2023-02-24T08:49:42.733Z,13.18
2023-02-24T08:52:10.678Z,13.30
2023-02-24T08:54:56.886Z,13.36
2023-02-24T08:57:30.734Z,13.20
2023-02-24T09:00:07.302Z,13.22
2023-02-24T09:02:54.988Z,13.38
2023-02-24T09:05:26.153Z,13.32
2023-02-24T09:08:05.347Z,13.33
2023-02-24T09:10:43.600Z,13.40
2023-02-24T09:13:12.697Z,13.36
2023-02-24T09:15:41.995Z,13.74
2023-02-24T09:18:09.868Z,13.67
2023-02-24T09:21:20.541Z,13.36
2023-02-24T09:23:52.868Z,12.84
2023-02-24T09:26:23.850Z,13.08
2023-02-24T09:28:56.592Z,13.42
2023-02-24T09:31:41.082Z,13.64
2023-02-24T09:34:19.500Z,13.44
2023-02-24T09:37:12.692Z,13.48
2023-02-24T09:39:58.984Z,13.73
2023-02-24T09:45:38.186Z,13.72
2023-02-24T09:48:59.635Z,13.80
2023-02-24T09:51:30.618Z,13.95
2023-02-24T09:54:13.709Z,13.98
2023-02-24T09:57:08.502Z,14.01
2023-02-24T10:00:04.294Z,14.16
2023-02-24T10:03:04.015Z,14.39
2023-02-24T10:05:49.450Z,14.45
2023-02-24T10:08:29.246Z,14.43
2023-02-24T10:11:07.300Z,14.46
2023-02-24T10:13:51.937Z,14.53
2023-02-24T10:16:44.976Z,14.61
2023-02-24T10:19:34.367Z,14.73
2023-02-24T10:22:23.243Z,14.74
2023-02-24T10:25:01.619Z,14.90
2023-02-24T10:27:56.178Z,14.93
2023-02-24T10:31:25.588Z,14.87
2023-02-24T10:34:45.673Z,15.12
2023-02-24T10:37:30.968Z,15.02
2023-02-24T10:40:38.813Z,15.14
2023-02-24T10:43:51.560Z,15.42
2023-02-24T10:46:45.001Z,15.49
2023-02-24T10:49:20.456Z,15.48
2023-02-24T10:52:19.281Z,15.57
2023-02-24T10:55:08.770Z,15.63
2023-02-24T10:57:59.145Z,15.72
2023-02-24T11:00:53.991Z,15.73
2023-02-24T11:03:46.347Z,15.89
2023-02-24T11:06:42.528Z,15.98
2023-02-24T11:09:40.216Z,16.05
2023-02-24T11:12:47.297Z,16.12
2023-02-24T11:15:50.995Z,16.07
2023-02-24T11:18:31.452Z,16.08
2023-02-24T11:21:06.579Z,15.94
2023-02-24T11:23:59.936Z,15.80
2023-02-24T11:26:48.836Z,15.59
2023-02-24T11:29:25.679Z,15.56
2023-02-24T11:32:23.715Z,15.49
2023-02-24T11:35:06.784Z,15.63
2023-02-24T11:37:43.348Z,15.48
2023-02-24T11:40:32.205Z,15.64
2023-02-24T11:43:04.604Z,15.64
2023-02-24T11:45:55.216Z,15.59
2023-02-24T11:48:32.937Z,15.46
2023-02-24T11:51:27.672Z,15.39
2023-02-24T11:54:10.776Z,15.37
2023-02-24T11:57:06.745Z,15.53
2023-02-24T11:59:49.963Z,15.44
2023-02-24T12:02:43.887Z,15.64
2023-02-24T12:05:28.612Z,15.80
2023-02-24T12:08:11.039Z,15.61
2023-02-24T12:10:47.726Z,15.50
2023-02-24T12:14:03.653Z,15.60
2023-02-24T12:16:53.809Z,15.54
2023-02-24T12:19:52.150Z,15.56
2023-02-24T12:22:35.812Z,15.52
2023-02-24T12:25:13.348Z,15.58
2023-02-24T12:28:11.437Z,15.64
2023-02-24T12:31:00.852Z,15.49
2023-02-24T12:34:00.382Z,15.39
2023-02-24T12:37:11.291Z,15.49
2023-02-24T12:39:58.984Z,15.63
2023-02-24T12:42:36.019Z,15.78
2023-02-24T12:45:26.538Z,15.66
2023-02-24T12:48:09.476Z,15.61
2023-02-24T12:51:08.410Z,15.70
2023-02-24T12:54:22.149Z,15.74
2023-02-24T12:56:59.054Z,15.72
2023-02-24T12:59:33.144Z,15.71
2023-02-24T13:02:31.905Z,15.72
2023-02-24T13:08:39.392Z,15.57
2023-02-24T13:11:46.846Z,15.57
2023-02-24T13:14:42.093Z,15.59
2023-02-24T13:17:11.901Z,15.49
2023-02-24T13:19:58.486Z,15.43
2023-02-24T13:22:33.908Z,15.43
2023-02-24T13:25:30.198Z,15.49
2023-02-24T13:28:02.666Z,15.36
2023-02-24T13:30:56.534Z,15.38
2023-02-24T13:33:56.106Z,15.49
2023-02-24T13:36:55.596Z,15.35
2023-02-24T13:39:55.100Z,15.53
2023-02-24T13:42:39.711Z,15.57
2023-02-24T13:45:16.279Z,15.53
2023-02-24T13:48:14.646Z,15.58
2023-02-24T13:51:12.084Z,15.65
2023-02-24T13:54:15.460Z,15.57
2023-02-24T13:57:25.279Z,15.69
2023-02-24T14:00:18.457Z,15.67
2023-02-24T14:05:52.718Z,15.56
2023-02-24T14:08:40.633Z,15.62
2023-02-24T14:11:12.974Z,15.55
2023-02-24T14:13:50.703Z,15.65
2023-02-24T14:16:33.579Z,15.61
2023-02-24T14:19:06.778Z,15.58
2023-02-24T14:21:37.476Z,15.76
2023-02-24T14:24:18.217Z,15.79
2023-02-24T14:27:02.927Z,15.76
2023-02-24T14:29:47.581Z,15.63
2023-02-24T14:32:27.697Z,15.70
2023-02-24T14:35:02.044Z,15.60
2023-02-24T14:37:36.206Z,15.56
2023-02-24T14:40:18.182Z,15.56
2023-02-24T14:42:54.687Z,15.47
2023-02-24T14:45:40.002Z,15.53
2023-02-24T14:48:07.832Z,15.68
2023-02-24T14:50:40.843Z,15.63
2023-02-24T14:53:16.771Z,15.51
2023-02-24T14:55:52.705Z,15.52
2023-02-24T14:59:11.298Z,15.60
2023-02-24T15:01:42.269Z,15.63
2023-02-24T15:04:47.468Z,15.48
2023-02-24T15:07:38.120Z,15.43
2023-02-24T15:10:22.166Z,15.49
2023-02-24T15:13:01.038Z,15.35
2023-02-24T15:15:50.402Z,15.41
2023-02-24T15:18:29.607Z,15.38
2023-02-24T15:21:07.746Z,15.36
2023-02-24T15:26:32.585Z,15.40
2023-02-24T15:29:08.133Z,15.38
2023-02-24T15:34:33.225Z,15.33
2023-02-24T15:37:26.048Z,15.38
2023-02-24T15:40:29.653Z,15.33
2023-02-24T15:43:14.155Z,15.39
2023-02-24T15:45:41.649Z,15.33
2023-02-24T15:48:31.083Z,15.28
2023-02-24T15:51:08.813Z,15.18
2023-02-24T15:53:40.642Z,15.29
2023-02-24T15:56:13.906Z,15.39
2023-02-24T15:58:45.361Z,15.35
2023-02-24T16:01:29.954Z,15.40
2023-02-24T16:04:18.243Z,15.41
2023-02-24T16:06:55.341Z,15.41
2023-02-24T16:09:40.504Z,15.40
2023-02-24T16:12:22.015Z,15.36
2023-02-24T16:14:57.838Z,15.36
2023-02-24T16:21:01.133Z,15.18
2023-02-24T16:23:28.001Z,15.24
2023-02-24T16:26:20.971Z,15.32
2023-02-24T16:28:57.712Z,15.34
2023-02-24T16:31:28.920Z,15.45
2023-02-24T16:33:58.649Z,15.35
2023-02-24T16:36:29.142Z,15.45
2023-02-24T16:39:01.922Z,15.35
2023-02-24T16:41:53.408Z,15.36
2023-02-24T16:44:24.790Z,15.31
2023-02-24T16:47:17.860Z,15.28
2023-02-24T16:49:45.130Z,15.27
2023-02-24T16:52:13.335Z,15.30
2023-02-24T16:54:40.100Z,15.18
2023-02-24T16:57:28.727Z,15.17
2023-02-24T17:02:59.096Z,15.26
2023-02-24T17:05:37.757Z,15.14
2023-02-24T17:08:08.606Z,15.25
2023-02-24T17:10:56.579Z,15.15
2023-02-24T17:13:32.439Z,15.18
2023-02-24T17:16:04.765Z,15.19
2023-02-24T17:18:31.586Z,15.10
2023-02-24T17:21:20.686Z,15.03
2023-02-24T17:23:53.529Z,15.04
2023-02-24T17:26:21.880Z,15.01
2023-02-24T17:28:58.660Z,15.01
2023-02-24T17:31:33.738Z,15.01
2023-02-24T17:34:06.469Z,15.24
2023-02-24T17:36:38.281Z,15.11
2023-02-24T17:39:08.826Z,15.05
2023-02-24T17:41:45.228Z,15.03
2023-02-24T17:44:21.283Z,14.94
2023-02-24T17:46:52.669Z,14.94
2023-02-24T17:49:58.473Z,14.91
2023-02-24T17:52:25.677Z,14.91
2023-02-24T17:54:55.020Z,14.95
2023-02-24T17:57:23.677Z,14.97
2023-02-24T18:00:07.608Z,14.98
2023-02-24T18:02:42.081Z,14.95
2023-02-24T18:05:23.834Z,14.86
2023-02-24T18:08:00.138Z,14.84
2023-02-24T18:10:30.676Z,14.91
2023-02-24T18:13:09.018Z,14.95
2023-02-24T18:15:57.743Z,14.95
2023-02-24T18:18:34.234Z,14.96
2023-02-24T18:21:09.687Z,14.85
2023-02-24T18:23:57.258Z,14.83
2023-02-24T18:26:59.650Z,14.88
2023-02-24T18:32:27.677Z,14.91
2023-02-24T18:35:02.289Z,14.83
2023-02-24T18:40:36.807Z,14.88
2023-02-24T18:43:16.746Z,14.75
2023-02-24T18:45:43.963Z,14.76
2023-02-24T18:48:13.654Z,14.75
2023-02-24T18:50:46.750Z,14.81
2023-02-24T18:53:16.688Z,14.81
2023-02-24T18:55:44.702Z,14.90
2023-02-24T18:58:43.533Z,14.86
2023-02-24T19:01:25.566Z,14.88
2023-02-24T19:04:05.129Z,14.86
2023-02-24T19:06:40.737Z,14.83
2023-02-24T19:09:19.796Z,14.84
2023-02-24T19:11:54.233Z,14.80
2023-02-24T19:14:21.128Z,14.86
2023-02-24T19:16:48.998Z,14.87
2023-02-24T19:19:29.750Z,14.75
2023-02-24T19:22:04.762Z,14.74
2023-02-24T19:24:52.169Z,14.74
2023-02-24T19:27:32.606Z,14.88
2023-02-24T19:30:08.961Z,14.87
2023-02-24T19:32:44.049Z,14.85
2023-02-24T19:35:15.824Z,14.97
2023-02-24T19:37:53.729Z,14.88
2023-02-24T19:40:34.805Z,14.90
2023-02-24T19:43:12.696Z,14.84
2023-02-24T19:45:50.993Z,14.88
2023-02-24T19:48:23.931Z,14.89
2023-02-24T19:51:05.703Z,14.83
2023-02-24T19:53:35.431Z,14.81
2023-02-24T19:56:03.978Z,14.88
2023-02-24T19:58:39.214Z,14.83
2023-02-24T20:01:16.824Z,14.94
2023-02-24T20:03:53.709Z,14.93
2023-02-24T20:06:31.662Z,14.86
2023-02-24T20:09:04.747Z,14.82
2023-02-24T20:11:45.905Z,14.84
2023-02-24T20:14:15.299Z,14.67
2023-02-24T20:16:46.035Z,14.67
2023-02-24T20:19:32.437Z,14.63
2023-02-24T20:22:27.996Z,14.60
2023-02-24T20:25:00.555Z,14.64
2023-02-24T20:27:52.632Z,14.54
2023-02-24T20:30:26.358Z,14.70
2023-02-24T20:32:56.677Z,14.69
2023-02-24T20:35:26.881Z,14.63
2023-02-24T20:37:57.711Z,14.56
2023-02-24T20:40:26.880Z,14.55
2023-02-24T20:43:26.268Z,14.60
2023-02-24T20:45:56.371Z,14.50
2023-02-24T20:48:32.944Z,14.62
2023-02-24T20:51:21.810Z,14.56
2023-02-24T20:57:20.576Z,14.51
2023-02-24T21:00:02.997Z,14.59
2023-02-24T21:02:39.461Z,14.42
2023-02-24T21:05:58.866Z,14.46
2023-02-24T21:11:05.275Z,14.46
2023-02-24T21:13:31.992Z,14.42
2023-02-24T21:15:58.687Z,14.48
2023-02-24T21:18:25.505Z,14.38
2023-02-24T21:20:54.138Z,14.34
2023-02-24T21:26:13.190Z,14.40
2023-02-24T21:28:47.154Z,14.32
2023-02-24T21:31:24.377Z,14.36
2023-02-24T21:33:52.387Z,14.34
2023-02-24T21:36:26.439Z,14.41
2023-02-24T21:39:00.740Z,14.30
2023-02-24T21:41:27.712Z,14.27
2023-02-24T21:44:18.368Z,14.12
2023-02-24T21:47:13.365Z,14.43
2023-02-24T21:49:49.888Z,14.39
2023-02-24T21:55:01.317Z,14.18
2023-02-24T21:57:28.536Z,14.15
2023-02-24T22:00:20.907Z,14.18
2023-02-24T22:02:54.695Z,14.30
2023-02-24T22:05:39.715Z,14.30
2023-02-24T22:08:26.747Z,14.28
2023-02-24T22:11:06.846Z,14.12
2023-02-24T22:13:33.642Z,14.18
2023-02-24T22:16:21.586Z,14.16
2023-02-24T22:19:29.712Z,14.23
2023-02-24T22:22:21.266Z,14.16
2023-02-24T22:25:08.066Z,14.15
2023-02-24T22:28:04.945Z,14.25
2023-02-24T22:30:44.043Z,14.23
2023-02-24T22:33:18.961Z,14.15
2023-02-24T22:35:55.172Z,14.15
2023-02-24T22:38:39.442Z,14.17
2023-02-24T22:41:29.694Z,14.01
2023-02-24T22:44:10.955Z,13.84
2023-02-24T22:46:47.089Z,13.85
2023-02-24T22:49:37.971Z,13.75
2023-02-24T22:52:24.774Z,13.79
2023-02-24T22:55:03.395Z,13.82
2023-02-24T22:57:45.289Z,13.85
2023-02-24T23:00:38.292Z,13.95
2023-02-24T23:06:17.913Z,13.57
2023-02-24T23:09:00.504Z,13.68
2023-02-24T23:11:34.350Z,13.66
2023-02-24T23:14:10.322Z,13.76
2023-02-24T23:16:59.849Z,13.91
2023-02-24T23:19:38.808Z,13.92
2023-02-24T23:22:23.213Z,14.00
2023-02-24T23:25:05.843Z,14.04
2023-02-24T23:28:01.763Z,13.89
2023-02-24T23:31:05.165Z,13.79
2023-02-24T23:33:39.790Z,13.86
2023-02-24T23:36:20.854Z,13.96
2023-02-24T23:39:12.103Z,14.01
2023-02-24T23:42:23.056Z,13.94
2023-02-24T23:45:08.705Z,13.91
2023-02-24T23:50:57.951Z,13.70
2023-02-24T23:53:59.656Z,13.79
2023-02-24T23:56:40.705Z,13.72
2023-02-24T23:59:08.005Z,13.95
